Flight Track Log - Related Links

Times and Time Zones

All times are in EDT time to prevent confusion due to time zone crossing. See the JBU51 flight status page for this flight to view local times or setup timezone preferences in your user account.

Time Position Orientation Groundspeed Altitude Reporting Facility
EDT Latitude Longitude Course Direction KTS MPH feet Rate Location/Type
Tue 11:41:14 AM 44.4364 -73.1261 194° South 176 203 2,200  Level Boston Center
Tue 11:42:14 AM 44.3842 -73.1400 191° South 187 215 4,600 2,800 Climbing Boston Center
Tue 11:43:14 AM 44.3217 -73.1656 196° South 236 272 7,800 3,174 Climbing Boston Center
Tue 11:44:00 AM 44.1444 -73.2709 195° South  Level FlightAware Approximate
Tue 11:44:15 AM 44.2483 -73.1964 197° South 276 318 11,000  Level Boston Center
Tue 11:45:00 AM 44.0634 -73.3011 194° South  Level FlightAware Approximate
Tue 11:45:14 AM 44.1669 -73.2303 197° South 303 349 13,200  Level Boston Center
Tue 11:46:00 AM 43.9818 -73.3283 194° South  Level FlightAware Approximate
Tue 11:46:14 AM 44.0728 -73.2694 197° South 337 388 15,600  Level Boston Center
Tue 11:47:14 AM 43.9767 -73.3086 196° South 360 414 18,200 2,380 Climbing Boston Center
Tue 11:48:15 AM 43.8744 -73.3503 196° South 375 432 20,400 2,200 Climbing Boston Center
Tue 11:49:14 AM 43.7697 -73.3947 197° South 393 452 22,600 2,017 Climbing Boston Center
Tue 11:50:14 AM 43.6486 -73.4414 196° South 409 471 24,400 1,950 Climbing Boston Center
Tue 11:51:14 AM 43.5336 -73.4883 196° South 419 482 26,500 1,686 Climbing Boston Center
Tue 11:52:15 AM 43.4183 -73.5319 195° South 424 488 27,800 744 Climbing Boston Center
Tue 11:53:15 AM 43.3011 -73.5842 198° South 430 495 28,000 100 Climbing Boston Center
Tue 11:54:15 AM 43.1819 -73.6275 195° South 440 506 28,000  Level Boston Center
Tue 11:55:14 AM 43.0628 -73.6792 198° South 440 506 28,000  Level Boston Center
Tue 11:56:14 AM 42.9456 -73.7250 196° South 445 512 28,000  Level Boston Center
Tue 11:57:15 AM 42.8408 -73.7681 197° South 445 512 28,000  Level Boston Center
Tue 11:58:14 AM 42.7194 -73.8078 194° South 445 512 28,000  Level Boston Center
Tue 11:59:15 AM 42.5964 -73.8108 181° South 438 504 28,000  Level Boston Center
Tue 12:00:14 PM 42.4775 -73.8139 181° South 438 504 28,000  Level Boston Center
Tue 12:01:14 PM 42.3567 -73.8139 180° South 438 504 28,000  Level Boston Center
Tue 12:02:14 PM 42.2358 -73.8169 181° South 438 504 28,000  Level Boston Center
Tue 12:03:14 PM 42.1003 -73.8167 180° South 443 510 28,000  Level Boston Center
Tue 12:04:14 PM 41.9931 -73.8786 203° Southwest 426 490 28,000  Level Boston Center
Tue 12:05:15 PM 41.9308 -74.0139 238° Southwest 396 456 28,000 -820 Level Boston Center
Tue 12:06:55 PM 41.7733 -74.1531 213° Southwest 404 465 25,800 -1,682 Descending New York Center
Tue 12:07:52 PM 41.6572 -74.1361 174° South 384 442 23,600 -2,085 Descending New York Center
Tue 12:08:53 PM 41.5664 -74.1094 168° South 389 448 21,700 -1,756 Descending New York Center
Tue 12:09:55 PM 41.4608 -74.0819 169° South 384 442 20,000 -836 Descending New York Center
Tue 12:10:55 PM 41.3564 -74.0906 184° South 384 442 20,000  Level New York Center
Tue 12:11:53 PM 41.2756 -74.1556 211° Southwest 347 399 20,000  Level New York Center
Tue 12:12:53 PM 41.1875 -74.1758 190° South 336 387 20,000 -429 Level New York Center
Tue 12:13:31 PM 41.1167 -74.1667 174° South 325 374 19,300 -612 Descending New York TRACON
Tue 12:14:31 PM 41.0333 -74.1333 163° South 321 369 19,000 -150 Descending New York TRACON
Tue 12:15:31 PM 40.9500 -74.1000 163° South 322 371 19,000 -450 Level New York TRACON
Tue 12:16:31 PM 40.8500 -74.0833 173° South 321 369 18,100 -947 Descending New York TRACON
Tue 12:17:25 PM 40.8167 -73.9833 114° Southeast 322 371 17,200 -1,300 Descending New York TRACON
Tue 12:18:31 PM 40.7667 -73.8833 123° Southeast 307 353 15,500 -1,571 Descending New York TRACON
Tue 12:19:31 PM 40.7333 -73.7833 114° Southeast 306 352 13,900 -1,700 Descending New York TRACON
Tue 12:20:31 PM 40.6833 -73.7000 128° Southeast 314 361 12,100 -1,700 Descending New York TRACON
Tue 12:21:31 PM 40.6167 -73.6833 169° South 311 358 10,500 -1,750 Descending New York TRACON
Tue 12:22:31 PM 40.5333 -73.6667 171° South 266 306 8,600 -1,950 Descending New York TRACON
Tue 12:23:31 PM 40.4667 -73.6500 169° South 266 306 6,600 -2,000 Descending New York TRACON
Tue 12:24:31 PM 40.4000 -73.7000 210° Southwest 266 306 4,600 -1,300 Descending New York TRACON
Tue 12:25:31 PM 40.3500 -73.7667 225° Southwest 254 292 4,000 -700 Descending New York TRACON
Tue 12:26:31 PM 40.3500 -73.8500 270° West 225 259 3,200 -476 Descending New York TRACON
Tue 12:27:37 PM 40.4000 -73.9000 323° Northwest 202 232 3,000 -95 Descending New York TRACON
Tue 12:28:37 PM 40.4500 -73.9167 346° North 198 228 3,000 -100 Level New York TRACON
Tue 12:29:37 PM 40.5000 -73.8833 27° Northeast 186 214 2,800 -600 Descending New York TRACON
Tue 12:30:37 PM 40.5500 -73.8500 27° Northeast 180 207 1,800 -950 Descending New York TRACON
Tue 12:31:37 PM 40.5833 -73.8167 37° Northeast 136 157 900 -789 Descending New York TRACON
Tue 12:32:31 PM 40.6167 -73.8000 21° North 123 142 300 -667 Descending New York TRACON

Login

Don't have an account? Register now (free) for customized features, flight alerts, and more!